Terminal Aerodrome Forecast
Issued by NWS

Home | Current Version | Previous Version | Text Only | Print | Product List | Glossary On
Versions: 1 2 3 4 5 6 7 8 9 10 11 12 13 14 15 16 17 18 19
000
FTUS42 KTBW 280500 RRA
TAFPGD
TAF
KPGD 280550Z 2806/0106 06010KT 6SM BR BKN008 OVC015
     FM280900 04009KT 5SM BR VCSH OVC005
     FM281500 08011KT P6SM VCSH BKN020 OVC040
     FM281800 08009KT P6SM VCSH BKN040
     FM010200 06008KT P6SM BKN030=

USA.gov is the U.S. government's official web portal to all federal, state and local government web resources and services.